createdAt,value
2023-03-21T00:00:18.601Z,9.12
2023-03-21T00:01:18.559Z,9.05
2023-03-21T00:02:18.607Z,9.09
2023-03-21T00:03:18.534Z,9.16
2023-03-21T00:04:18.530Z,9.15
2023-03-21T00:05:18.525Z,9.10
2023-03-21T00:06:18.450Z,9.24
2023-03-21T00:07:18.416Z,9.25
2023-03-21T00:08:18.441Z,9.20
2023-03-21T00:09:18.376Z,9.28
2023-03-21T00:10:29.812Z,9.30
2023-03-21T00:11:18.317Z,9.38
2023-03-21T00:12:18.300Z,9.38
2023-03-21T00:13:18.273Z,9.35
2023-03-21T00:14:18.254Z,9.38
2023-03-21T00:15:20.540Z,9.32
2023-03-21T00:16:20.810Z,9.27
2023-03-21T00:17:18.179Z,9.23
2023-03-21T00:18:18.168Z,9.16
2023-03-21T00:19:18.130Z,9.16
2023-03-21T00:20:18.107Z,9.20
2023-03-21T00:22:18.058Z,9.16
2023-03-21T00:23:18.029Z,9.09
2023-03-21T00:24:18.010Z,9.16
2023-03-21T00:25:17.977Z,9.10
2023-03-21T00:26:17.965Z,9.01
2023-03-21T00:28:17.907Z,9.06
2023-03-21T00:29:17.888Z,8.96
2023-03-21T00:30:17.860Z,8.87
2023-03-21T00:31:17.836Z,8.91
2023-03-21T00:32:17.810Z,8.83
2023-03-21T00:33:22.695Z,8.83
2023-03-21T00:34:22.715Z,8.76
2023-03-21T00:36:06.107Z,8.71
2023-03-21T00:36:17.760Z,8.73
2023-03-21T00:37:17.700Z,8.69
2023-03-21T00:38:17.672Z,8.73
2023-03-21T00:39:17.646Z,8.71
2023-03-21T00:40:26.755Z,8.73
2023-03-21T00:41:26.332Z,8.66
2023-03-21T00:42:17.574Z,8.78
2023-03-21T00:43:17.536Z,8.73
2023-03-21T00:44:17.526Z,8.66
2023-03-21T00:45:17.507Z,8.68
2023-03-21T00:46:17.496Z,8.79
2023-03-21T00:47:17.509Z,8.73
2023-03-21T00:48:17.507Z,8.76
2023-03-21T00:49:17.413Z,8.76
2023-03-21T00:50:17.376Z,8.81
2023-03-21T00:51:17.408Z,8.83
2023-03-21T00:52:24.765Z,8.72
2023-03-21T00:53:17.295Z,8.57
2023-03-21T00:54:17.272Z,8.65
2023-03-21T00:55:17.258Z,8.55
2023-03-21T00:56:17.222Z,8.60
2023-03-21T00:57:18.739Z,8.58
2023-03-21T00:58:17.176Z,8.57
2023-03-21T00:59:17.167Z,8.48
2023-03-21T01:00:17.130Z,8.51
2023-03-21T01:01:17.169Z,8.47
2023-03-21T01:02:17.118Z,8.45
2023-03-21T01:03:24.249Z,8.40
2023-03-21T01:04:17.218Z,8.37
2023-03-21T01:05:17.006Z,8.44
2023-03-21T01:06:16.980Z,8.39
2023-03-21T01:07:16.964Z,8.50
2023-03-21T01:08:26.508Z,8.48
2023-03-21T01:09:17.105Z,8.53
2023-03-21T01:10:16.893Z,8.48
2023-03-21T01:11:16.865Z,8.42
2023-03-21T01:12:16.837Z,8.39
2023-03-21T01:13:16.814Z,8.44
2023-03-21T01:14:23.060Z,8.36
2023-03-21T01:15:16.765Z,8.35
2023-03-21T01:16:16.783Z,8.35
2023-03-21T01:17:16.724Z,8.28
2023-03-21T01:18:16.684Z,8.22
2023-03-21T01:19:25.132Z,8.26
2023-03-21T01:20:16.637Z,8.22
2023-03-21T01:21:16.620Z,8.10
2023-03-21T01:22:16.591Z,8.15
2023-03-21T01:23:16.579Z,8.14
2023-03-21T01:24:16.552Z,8.12
2023-03-21T01:25:22.204Z,8.03
2023-03-21T01:26:16.488Z,8.07
2023-03-21T01:27:16.476Z,8.07
2023-03-21T01:28:16.452Z,7.99
2023-03-21T01:29:16.416Z,8.03
2023-03-21T01:30:21.591Z,7.90
2023-03-21T01:31:16.421Z,8.02
2023-03-21T01:32:16.373Z,7.90
2023-03-21T01:33:16.324Z,7.94
2023-03-21T01:34:16.292Z,7.82
2023-03-21T01:35:16.273Z,7.79
2023-03-21T01:36:16.522Z,7.69
2023-03-21T01:37:16.220Z,7.74
2023-03-21T01:38:16.192Z,7.58
2023-03-21T01:39:16.192Z,7.49
2023-03-21T01:40:16.150Z,7.56
2023-03-21T01:41:19.900Z,7.55
2023-03-21T01:42:16.112Z,7.35
2023-03-21T01:43:16.106Z,7.47
2023-03-21T01:44:16.059Z,7.53
2023-03-21T01:45:16.027Z,7.50
2023-03-21T01:46:16.057Z,7.37
2023-03-21T01:47:15.983Z,7.40
2023-03-21T01:48:16.069Z,7.35
2023-03-21T01:49:15.938Z,7.35
2023-03-21T01:50:15.897Z,7.23
2023-03-21T01:51:15.882Z,7.27
2023-03-21T01:52:26.539Z,7.27
2023-03-21T01:53:15.835Z,7.04
2023-03-21T01:54:15.814Z,7.07
2023-03-21T01:55:15.777Z,7.09
2023-03-21T01:56:15.759Z,7.12
2023-03-21T01:57:15.732Z,7.05
2023-03-21T01:58:15.695Z,6.94
2023-03-21T01:59:15.678Z,6.89
2023-03-21T02:00:15.653Z,6.90
2023-03-21T02:01:15.687Z,6.86
2023-03-21T02:02:15.603Z,6.91
2023-03-21T02:03:26.362Z,6.84
2023-03-21T02:04:15.610Z,6.84
2023-03-21T02:05:15.541Z,6.84
2023-03-21T02:06:15.514Z,6.62
2023-03-21T02:07:15.473Z,6.63
2023-03-21T02:08:15.448Z,6.65
2023-03-21T02:09:15.432Z,6.59
2023-03-21T02:10:15.396Z,6.61
2023-03-21T02:11:15.376Z,6.48
2023-03-21T02:12:15.348Z,6.56
2023-03-21T02:13:15.325Z,6.65
2023-03-21T02:14:20.179Z,6.50
2023-03-21T02:15:15.281Z,6.59
2023-03-21T02:16:15.351Z,6.51
2023-03-21T02:17:15.224Z,6.56
2023-03-21T02:18:15.212Z,6.54
2023-03-21T02:19:17.629Z,6.44
2023-03-21T02:20:15.150Z,6.40
2023-03-21T02:21:15.130Z,6.44
2023-03-21T02:22:15.099Z,6.32
2023-03-21T02:23:15.149Z,6.46
2023-03-21T02:24:15.045Z,6.44
2023-03-21T02:25:21.766Z,6.51
2023-03-21T02:26:14.995Z,6.46
2023-03-21T02:27:15.005Z,6.35
2023-03-21T02:28:14.944Z,6.32
2023-03-21T02:29:15.424Z,6.25
2023-03-21T02:30:20.179Z,6.30
2023-03-21T02:31:14.927Z,6.25
2023-03-21T02:32:22.765Z,6.16
2023-03-21T02:33:14.827Z,6.10
2023-03-21T02:34:14.794Z,6.07
2023-03-21T02:35:14.803Z,6.06
2023-03-21T02:36:15.029Z,6.00
2023-03-21T02:37:15.279Z,6.07
2023-03-21T02:38:14.698Z,6.03
2023-03-21T02:39:14.678Z,5.98
2023-03-21T02:40:14.643Z,6.06
2023-03-21T02:41:19.023Z,5.98
2023-03-21T02:42:14.593Z,5.92
2023-03-21T02:43:23.122Z,5.93
2023-03-21T02:44:14.544Z,5.89
2023-03-21T02:45:14.522Z,5.86
2023-03-21T02:46:14.553Z,5.75
2023-03-21T02:47:14.549Z,5.71
2023-03-21T02:48:27.801Z,5.67
2023-03-21T02:49:14.421Z,5.67
2023-03-21T02:50:14.390Z,5.59
2023-03-21T02:51:14.366Z,5.56
2023-03-21T02:52:22.903Z,5.56
2023-03-21T02:53:14.318Z,5.67
2023-03-21T02:54:30.290Z,5.66
2023-03-21T02:55:14.622Z,5.56
2023-03-21T02:56:14.239Z,5.53
2023-03-21T02:57:14.227Z,5.56
2023-03-21T02:58:14.204Z,5.53
2023-03-21T02:59:14.170Z,5.56
2023-03-21T03:00:17.191Z,5.55
2023-03-21T03:01:14.153Z,5.57
2023-03-21T03:02:14.089Z,5.63
2023-03-21T03:03:24.831Z,5.56
2023-03-21T03:04:14.099Z,5.56
2023-03-21T03:05:20.800Z,5.53
2023-03-21T03:06:13.995Z,5.49
2023-03-21T03:07:13.970Z,5.35
2023-03-21T03:08:14.245Z,5.41
2023-03-21T03:09:13.913Z,5.37
2023-03-21T03:10:13.897Z,5.31
2023-03-21T03:11:13.872Z,5.22
2023-03-21T03:12:13.841Z,5.23
2023-03-21T03:13:13.811Z,5.30
2023-03-21T03:14:38.497Z,5.38
2023-03-21T03:15:13.762Z,5.28
2023-03-21T03:16:13.787Z,5.35
2023-03-21T03:17:13.712Z,5.46
2023-03-21T03:18:13.677Z,5.48
2023-03-21T03:19:13.663Z,5.46
2023-03-21T03:20:17.256Z,5.46
2023-03-21T03:21:13.612Z,5.53
2023-03-21T03:22:13.586Z,5.49
2023-03-21T03:23:13.555Z,5.53
2023-03-21T03:24:13.527Z,5.50
2023-03-21T03:25:24.848Z,5.53
2023-03-21T03:26:13.474Z,5.53
2023-03-21T03:27:13.456Z,5.60
2023-03-21T03:28:13.429Z,5.53
2023-03-21T03:29:13.409Z,5.48
2023-03-21T03:30:13.398Z,5.55
2023-03-21T03:31:13.610Z,5.53
2023-03-21T03:32:13.358Z,5.57
2023-03-21T03:33:13.300Z,5.56
2023-03-21T03:34:13.270Z,5.53
2023-03-21T03:35:13.247Z,5.59
2023-03-21T03:36:25.005Z,5.63
2023-03-21T03:37:13.231Z,5.55
2023-03-21T03:38:13.168Z,5.50
2023-03-21T03:39:13.149Z,5.57
2023-03-21T03:40:13.114Z,5.52
2023-03-21T03:41:13.122Z,5.59
2023-03-21T03:42:27.090Z,5.60
2023-03-21T03:43:13.053Z,5.55
2023-03-21T03:44:13.036Z,5.49
2023-03-21T03:45:12.998Z,5.53
2023-03-21T03:46:13.035Z,5.45
2023-03-21T03:47:22.809Z,5.43
2023-03-21T03:48:12.946Z,5.38
2023-03-21T03:49:12.891Z,5.48
2023-03-21T03:50:12.861Z,5.37
2023-03-21T03:51:12.840Z,5.31
2023-03-21T03:52:12.808Z,5.43
2023-03-21T03:53:18.034Z,5.38
2023-03-21T03:54:12.783Z,5.46
2023-03-21T03:55:12.753Z,5.35
2023-03-21T03:56:12.706Z,5.38
2023-03-21T03:57:12.686Z,5.40
2023-03-21T03:58:21.634Z,5.35
2023-03-21T03:59:12.656Z,5.31
2023-03-21T04:00:12.649Z,5.31
2023-03-21T04:01:12.614Z,5.38
2023-03-21T04:02:12.604Z,5.41
2023-03-21T04:03:12.676Z,5.35
2023-03-21T04:04:13.684Z,5.32
2023-03-21T04:05:12.486Z,5.30
2023-03-21T04:06:12.487Z,5.32
2023-03-21T04:07:12.438Z,5.22
2023-03-21T04:08:12.407Z,5.16
2023-03-21T04:09:20.675Z,5.20
2023-03-21T04:10:12.359Z,5.19
2023-03-21T04:11:12.329Z,5.12
2023-03-21T04:12:12.299Z,5.13
2023-03-21T04:13:12.302Z,5.16
2023-03-21T04:14:12.277Z,5.12
2023-03-21T04:15:12.250Z,5.14
2023-03-21T04:16:12.227Z,5.04
2023-03-21T04:17:12.193Z,5.05
2023-03-21T04:18:12.153Z,5.04
2023-03-21T04:19:12.133Z,4.99
2023-03-21T04:20:20.687Z,5.02
2023-03-21T04:21:12.074Z,4.99
2023-03-21T04:22:12.042Z,5.13
2023-03-21T04:23:12.026Z,5.05
2023-03-21T04:24:12.008Z,5.02
2023-03-21T04:25:13.027Z,5.10
2023-03-21T04:26:11.954Z,5.02
2023-03-21T04:27:11.932Z,5.04
2023-03-21T04:28:11.897Z,5.10
2023-03-21T04:29:11.881Z,5.14
2023-03-21T04:30:11.840Z,5.14
2023-03-21T04:31:24.464Z,5.12
2023-03-21T04:32:11.831Z,5.13
2023-03-21T04:33:11.773Z,5.27
2023-03-21T04:34:11.755Z,5.31
2023-03-21T04:35:11.722Z,5.22
2023-03-21T04:36:11.736Z,5.30
2023-03-21T04:37:11.669Z,5.34
2023-03-21T04:38:11.640Z,5.38
2023-03-21T04:39:11.619Z,5.41
2023-03-21T04:40:11.590Z,5.32
2023-03-21T04:41:11.593Z,5.43
2023-03-21T04:42:11.540Z,5.41
2023-03-21T04:43:11.511Z,5.52
2023-03-21T04:44:11.484Z,5.59
2023-03-21T04:45:11.471Z,5.52
2023-03-21T04:46:11.499Z,5.49
2023-03-21T04:47:11.432Z,5.56
2023-03-21T04:48:11.535Z,5.66
2023-03-21T04:49:11.359Z,5.66
2023-03-21T04:50:11.358Z,5.73
2023-03-21T04:51:11.344Z,5.74
2023-03-21T04:52:11.306Z,5.88
2023-03-21T04:53:11.260Z,5.83
2023-03-21T04:54:11.230Z,5.86
2023-03-21T04:55:11.218Z,5.83
2023-03-21T04:56:11.177Z,5.86
2023-03-21T04:57:11.158Z,5.88
2023-03-21T04:58:11.139Z,5.85
2023-03-21T04:59:11.116Z,5.83
2023-03-21T05:00:11.090Z,5.89
2023-03-21T05:01:11.080Z,5.78
2023-03-21T05:02:11.031Z,5.89
2023-03-21T05:03:11.008Z,5.96
2023-03-21T05:04:11.084Z,5.96
2023-03-21T05:05:10.954Z,5.96
2023-03-21T05:06:10.935Z,5.91
2023-03-21T05:07:10.900Z,5.93
2023-03-21T05:08:10.929Z,6.00
2023-03-21T05:09:10.846Z,5.95
2023-03-21T05:10:10.834Z,5.96
2023-03-21T05:11:10.802Z,6.01
2023-03-21T05:12:10.774Z,6.03
2023-03-21T05:13:10.740Z,6.04
2023-03-21T05:14:10.733Z,6.04
2023-03-21T05:15:10.692Z,6.09
2023-03-21T05:16:10.670Z,6.06
2023-03-21T05:17:10.638Z,6.10
2023-03-21T05:18:10.621Z,6.16
2023-03-21T05:19:10.616Z,6.04
2023-03-21T05:20:10.574Z,5.93
2023-03-21T05:21:10.581Z,5.93
2023-03-21T05:22:10.598Z,5.92
2023-03-21T05:23:10.500Z,5.96
2023-03-21T05:24:10.495Z,5.95
2023-03-21T05:25:10.455Z,5.88
2023-03-21T05:26:10.435Z,5.83
2023-03-21T05:27:10.403Z,5.81
2023-03-21T05:28:10.375Z,5.82
2023-03-21T05:29:10.341Z,5.86
2023-03-21T05:30:10.322Z,5.86
2023-03-21T05:31:10.327Z,5.89
2023-03-21T05:32:10.263Z,5.83
2023-03-21T05:33:10.232Z,5.88
2023-03-21T05:34:10.212Z,5.89
2023-03-21T05:35:10.204Z,5.89
2023-03-21T05:36:10.224Z,5.92
2023-03-21T05:37:10.144Z,5.91
2023-03-21T05:38:10.115Z,6.01
2023-03-21T05:39:10.115Z,6.06
2023-03-21T05:40:10.078Z,6.18
2023-03-21T05:41:10.035Z,6.30
2023-03-21T05:42:10.043Z,6.35
2023-03-21T05:43:09.993Z,6.43
2023-03-21T05:44:09.964Z,6.59
2023-03-21T05:45:09.940Z,6.73
2023-03-21T05:46:10.017Z,6.77
2023-03-21T05:47:09.890Z,6.83
2023-03-21T05:48:09.878Z,6.97
2023-03-21T05:49:09.829Z,7.07
2023-03-21T05:50:09.814Z,7.20
2023-03-21T05:51:09.779Z,7.26
2023-03-21T05:52:09.767Z,7.24
2023-03-21T05:53:09.726Z,7.41
2023-03-21T05:54:09.707Z,7.44
2023-03-21T05:55:09.705Z,7.53
2023-03-21T05:56:09.669Z,7.60
2023-03-21T05:57:09.629Z,7.67
2023-03-21T05:58:09.608Z,7.63
2023-03-21T05:59:09.580Z,7.79
2023-03-21T06:00:09.589Z,7.79
2023-03-21T06:01:09.528Z,7.94
2023-03-21T06:02:09.513Z,7.90
2023-03-21T06:03:09.475Z,7.89
2023-03-21T06:04:09.517Z,8.00
2023-03-21T06:05:09.427Z,8.04
2023-03-21T06:06:09.424Z,8.25
2023-03-21T06:07:09.376Z,8.29
2023-03-21T06:08:09.356Z,8.42
2023-03-21T06:09:09.330Z,8.45
2023-03-21T06:10:09.309Z,8.47
2023-03-21T06:11:09.281Z,8.48
2023-03-21T06:12:09.258Z,8.68
2023-03-21T06:13:09.250Z,8.79
2023-03-21T06:14:09.215Z,8.90
2023-03-21T06:15:09.205Z,9.23
2023-03-21T06:16:09.198Z,9.56
2023-03-21T06:17:09.126Z,9.99
2023-03-21T06:18:09.115Z,10.12
2023-03-21T06:19:09.087Z,10.22
2023-03-21T06:20:09.068Z,10.12
2023-03-21T06:21:09.038Z,10.24
2023-03-21T06:22:09.026Z,10.26
2023-03-21T06:23:08.989Z,10.18
2023-03-21T06:24:08.964Z,10.32
2023-03-21T06:25:08.942Z,10.30
2023-03-21T06:26:08.922Z,10.33
2023-03-21T06:27:08.906Z,10.42
2023-03-21T06:28:08.869Z,10.43
2023-03-21T06:29:08.841Z,10.53
2023-03-21T06:30:08.817Z,10.53
2023-03-21T06:31:08.845Z,10.53
2023-03-21T06:32:08.770Z,10.43
2023-03-21T06:33:08.757Z,10.53
2023-03-21T06:34:08.738Z,10.52
2023-03-21T06:35:08.694Z,10.55
2023-03-21T06:36:08.706Z,10.46
2023-03-21T06:37:08.649Z,10.58
2023-03-21T06:38:08.627Z,10.55
2023-03-21T06:39:08.606Z,10.59
2023-03-21T06:40:08.575Z,10.62
2023-03-21T06:41:08.551Z,10.60
2023-03-21T06:42:08.559Z,10.73
2023-03-21T06:43:08.518Z,10.83
2023-03-21T06:44:08.519Z,10.78
2023-03-21T06:45:08.463Z,10.84
2023-03-21T06:46:08.444Z,10.99
2023-03-21T06:47:08.420Z,11.07
2023-03-21T06:48:09.453Z,11.02
2023-03-21T06:49:08.365Z,11.27
2023-03-21T06:50:08.352Z,11.32
2023-03-21T06:51:08.314Z,11.43
2023-03-21T06:52:08.295Z,11.65
2023-03-21T06:53:08.265Z,11.78
2023-03-21T06:54:08.266Z,11.93
2023-03-21T06:55:08.220Z,12.05
2023-03-21T06:56:08.201Z,12.09
2023-03-21T06:57:08.176Z,12.19
2023-03-21T06:58:08.161Z,12.12
2023-03-21T06:59:08.134Z,12.20
2023-03-21T07:00:08.109Z,12.12
2023-03-21T07:01:08.190Z,12.02
2023-03-21T07:02:08.109Z,11.94
2023-03-21T07:03:08.049Z,11.90
2023-03-21T07:04:08.030Z,11.85
2023-03-21T07:05:07.999Z,11.82
2023-03-21T07:06:07.978Z,11.75
2023-03-21T07:07:07.953Z,11.85
2023-03-21T07:08:07.932Z,11.89
2023-03-21T07:09:07.907Z,11.89
2023-03-21T07:10:07.887Z,11.78
2023-03-21T07:11:07.856Z,11.93
2023-03-21T07:12:07.844Z,11.85
2023-03-21T07:13:07.812Z,11.96
2023-03-21T07:14:07.804Z,11.86
2023-03-21T07:15:07.771Z,11.82
2023-03-21T07:16:07.785Z,11.87
2023-03-21T07:17:07.724Z,11.93
2023-03-21T07:18:07.709Z,12.02
2023-03-21T07:19:07.688Z,12.04
2023-03-21T07:20:07.660Z,12.13
2023-03-21T07:21:07.635Z,12.11
2023-03-21T07:22:07.644Z,12.20
2023-03-21T07:23:07.588Z,12.24
2023-03-21T07:24:07.595Z,12.42
2023-03-21T07:25:07.600Z,12.49
2023-03-21T07:26:07.532Z,12.81
2023-03-21T07:27:07.499Z,12.89
2023-03-21T07:28:07.482Z,12.96
2023-03-21T07:29:07.453Z,13.12
2023-03-21T07:30:07.444Z,13.07
2023-03-21T07:31:07.419Z,13.21
2023-03-21T07:32:07.400Z,13.22
2023-03-21T07:33:07.386Z,13.18
2023-03-21T07:34:07.355Z,13.12
2023-03-21T07:35:07.349Z,13.02
2023-03-21T07:36:07.346Z,13.09
2023-03-21T07:37:07.285Z,13.15
2023-03-21T07:38:07.299Z,12.99
2023-03-21T07:39:07.240Z,12.92
2023-03-21T07:40:07.225Z,13.00
2023-03-21T07:41:07.194Z,13.00
2023-03-21T07:42:07.186Z,13.04
2023-03-21T07:43:07.219Z,13.03
2023-03-21T07:45:07.155Z,13.49
2023-03-21T07:46:07.123Z,14.13
2023-03-21T07:47:07.092Z,14.12
2023-03-21T07:48:07.090Z,14.13
2023-03-21T07:49:07.030Z,14.21
2023-03-21T07:50:07.007Z,14.24
2023-03-21T07:51:06.995Z,14.14
2023-03-21T07:52:06.965Z,14.02
2023-03-21T07:53:06.989Z,13.88
2023-03-21T07:54:06.929Z,13.56
2023-03-21T07:55:06.901Z,13.51
2023-03-21T07:56:06.889Z,13.55
2023-03-21T07:57:06.872Z,13.37
2023-03-21T07:58:06.860Z,13.40
2023-03-21T07:59:06.831Z,13.44
2023-03-21T08:00:06.852Z,13.55
2023-03-21T08:01:06.785Z,13.77
2023-03-21T08:02:06.807Z,13.77
2023-03-21T08:03:06.789Z,13.87
2023-03-21T08:04:06.721Z,13.88
2023-03-21T08:05:06.693Z,13.79
2023-03-21T08:06:06.682Z,13.79
2023-03-21T08:07:06.657Z,13.55
2023-03-21T08:08:06.636Z,13.52
2023-03-21T08:09:06.619Z,13.51
2023-03-21T08:10:06.613Z,13.52
2023-03-21T08:11:06.581Z,13.58
2023-03-21T08:12:06.560Z,13.54
2023-03-21T08:13:06.531Z,13.84
2023-03-21T08:14:06.525Z,14.10
2023-03-21T08:15:06.499Z,14.01
2023-03-21T08:16:06.494Z,14.02
2023-03-21T08:17:06.561Z,14.14
2023-03-21T08:18:06.443Z,14.13
2023-03-21T08:19:06.427Z,14.06
2023-03-21T08:20:06.402Z,13.95
2023-03-21T08:21:08.274Z,13.87
2023-03-21T08:22:06.390Z,13.88
2023-03-21T08:23:06.337Z,13.92
2023-03-21T08:24:06.325Z,13.95
2023-03-21T08:25:06.303Z,14.14
2023-03-21T08:26:06.333Z,14.14
2023-03-21T08:27:06.264Z,14.35
2023-03-21T08:28:06.244Z,14.29
2023-03-21T08:29:06.213Z,14.56
2023-03-21T08:30:06.202Z,14.42
2023-03-21T08:31:06.243Z,14.43
2023-03-21T08:32:06.158Z,14.14
2023-03-21T08:33:06.139Z,13.98
2023-03-21T08:34:06.127Z,14.35
2023-03-21T08:35:06.094Z,14.49
2023-03-21T08:36:06.133Z,14.84
2023-03-21T08:37:06.060Z,14.78
2023-03-21T08:38:06.041Z,14.69
2023-03-21T08:39:06.029Z,14.49
2023-03-21T08:40:06.071Z,14.61
2023-03-21T08:41:05.990Z,14.62
2023-03-21T08:42:05.978Z,14.56
2023-03-21T08:43:05.936Z,14.38
2023-03-21T08:44:05.916Z,14.72
2023-03-21T08:45:05.896Z,15.11
2023-03-21T08:46:05.934Z,15.28
2023-03-21T08:47:05.857Z,15.93
2023-03-21T08:48:05.894Z,16.26
2023-03-21T08:49:05.817Z,16.31
2023-03-21T08:50:05.804Z,16.56
2023-03-21T08:51:05.786Z,16.74
2023-03-21T08:52:05.762Z,16.73
2023-03-21T08:53:05.741Z,16.92
2023-03-21T08:54:05.730Z,17.08
2023-03-21T08:55:05.753Z,17.47
2023-03-21T08:56:05.704Z,17.63
2023-03-21T08:57:05.660Z,17.69
2023-03-21T08:58:05.649Z,17.26
2023-03-21T08:59:05.636Z,17.46
2023-03-21T09:00:05.617Z,17.81
2023-03-21T09:01:05.617Z,18.00
2023-03-21T09:02:05.675Z,17.76
2023-03-21T09:03:05.567Z,17.51
2023-03-21T09:04:05.539Z,17.50
2023-03-21T09:05:05.545Z,17.67
2023-03-21T09:06:05.511Z,17.88
2023-03-21T09:07:05.483Z,18.27
2023-03-21T09:08:05.490Z,18.50
2023-03-21T09:09:05.451Z,18.29
2023-03-21T09:10:20.188Z,18.33
2023-03-21T09:11:05.414Z,18.42
2023-03-21T09:12:05.403Z,18.18
2023-03-21T09:13:05.398Z,18.22
2023-03-21T09:14:05.412Z,18.50
2023-03-21T09:15:05.344Z,18.54
2023-03-21T09:16:05.507Z,18.80
2023-03-21T09:17:05.311Z,18.65
2023-03-21T09:18:05.304Z,18.31
2023-03-21T09:19:05.302Z,18.17
2023-03-21T09:20:05.270Z,18.21
2023-03-21T09:21:05.256Z,17.84
2023-03-21T09:22:05.242Z,17.53
2023-03-21T09:23:05.231Z,16.90
2023-03-21T09:24:05.218Z,16.44
2023-03-21T09:25:05.190Z,16.14
2023-03-21T09:26:05.198Z,15.70
2023-03-21T09:27:05.173Z,15.54
2023-03-21T09:28:05.165Z,15.51
2023-03-21T09:29:05.146Z,15.26
2023-03-21T09:30:05.114Z,15.09
2023-03-21T09:31:05.305Z,15.02
2023-03-21T09:32:05.073Z,14.87
2023-03-21T09:33:05.072Z,14.75
2023-03-21T09:34:05.042Z,15.02
2023-03-21T09:35:05.034Z,14.99
2023-03-21T09:36:05.093Z,14.86
2023-03-21T09:37:05.000Z,14.86
2023-03-21T09:38:04.987Z,14.86
2023-03-21T09:39:04.976Z,15.02
2023-03-21T09:40:04.940Z,15.03
2023-03-21T09:41:04.982Z,15.01
2023-03-21T09:42:04.920Z,15.01
2023-03-21T09:43:04.917Z,15.11
2023-03-21T09:44:04.873Z,15.15
2023-03-21T09:45:04.870Z,15.21
2023-03-21T09:46:04.864Z,15.09
2023-03-21T09:47:04.889Z,15.20
2023-03-21T09:48:04.826Z,15.21
2023-03-21T09:49:04.825Z,15.23
2023-03-21T09:50:14.471Z,15.24
2023-03-21T09:51:04.763Z,15.23
2023-03-21T09:52:04.733Z,15.28
2023-03-21T09:53:04.717Z,15.09
2023-03-21T09:54:04.701Z,15.13
2023-03-21T09:55:04.706Z,15.13
2023-03-21T09:56:04.662Z,15.09
2023-03-21T09:57:04.653Z,15.08
2023-03-21T09:58:04.631Z,15.06
2023-03-21T09:59:04.630Z,15.15
2023-03-21T10:00:04.620Z,15.12
2023-03-21T10:01:04.665Z,15.27
2023-03-21T10:02:04.586Z,15.43
2023-03-21T10:03:04.544Z,15.20
2023-03-21T10:04:04.594Z,14.91
2023-03-21T10:05:04.513Z,14.88
2023-03-21T10:06:04.483Z,15.03
2023-03-21T10:07:04.474Z,15.13
2023-03-21T10:08:04.458Z,15.38
2023-03-21T10:09:04.441Z,15.27
2023-03-21T10:10:04.436Z,15.27
2023-03-21T10:11:04.400Z,15.36
2023-03-21T10:12:04.405Z,15.54
2023-03-21T10:13:04.360Z,15.56
2023-03-21T10:14:04.350Z,15.59
2023-03-21T10:15:04.331Z,15.57
2023-03-21T10:16:04.354Z,15.54
2023-03-21T10:17:04.293Z,15.45
2023-03-21T10:18:04.274Z,15.45
2023-03-21T10:19:04.274Z,15.42
2023-03-21T10:20:04.240Z,15.28
2023-03-21T10:21:04.219Z,15.24
2023-03-21T10:22:04.542Z,15.24
2023-03-21T10:23:04.235Z,15.30
2023-03-21T10:24:04.162Z,15.38
2023-03-21T10:25:04.147Z,15.21
2023-03-21T10:26:04.131Z,15.12
2023-03-21T10:27:04.122Z,15.19
2023-03-21T10:28:04.416Z,15.09
2023-03-21T10:29:04.142Z,15.01
2023-03-21T10:30:04.060Z,15.01
2023-03-21T10:31:04.044Z,14.99
2023-03-21T10:32:04.195Z,15.01
2023-03-21T10:33:04.026Z,14.91
2023-03-21T10:34:03.987Z,14.94
2023-03-21T10:35:03.997Z,15.05
2023-03-21T10:36:03.954Z,15.03
2023-03-21T10:37:03.944Z,15.05
2023-03-21T10:38:03.933Z,14.90
2023-03-21T10:39:03.900Z,14.88
2023-03-21T10:40:03.871Z,14.88
2023-03-21T10:41:03.862Z,14.99
2023-03-21T10:42:03.844Z,14.95
2023-03-21T10:43:03.828Z,14.95
2023-03-21T10:44:03.794Z,15.03
2023-03-21T10:45:03.790Z,14.98
2023-03-21T10:46:03.879Z,15.11
2023-03-21T10:47:04.040Z,15.08
2023-03-21T10:48:03.927Z,15.23
2023-03-21T10:49:03.785Z,15.17
2023-03-21T10:50:08.481Z,15.21
2023-03-21T10:51:03.696Z,15.23
2023-03-21T10:52:03.651Z,15.20
2023-03-21T10:53:03.641Z,15.17
2023-03-21T10:54:03.644Z,15.17
2023-03-21T10:55:03.615Z,15.20
2023-03-21T10:56:03.578Z,15.28
2023-03-21T10:57:03.573Z,15.31
2023-03-21T10:58:03.539Z,15.33
2023-03-21T10:59:03.526Z,15.45
2023-03-21T11:00:03.505Z,15.46
2023-03-21T11:01:03.589Z,15.41
2023-03-21T11:02:03.509Z,15.42
2023-03-21T11:03:03.454Z,15.30
2023-03-21T11:04:03.432Z,15.27
2023-03-21T11:05:03.417Z,15.24
2023-03-21T11:06:03.488Z,15.24
2023-03-21T11:07:03.385Z,15.26
2023-03-21T11:08:03.366Z,15.27
2023-03-21T11:09:03.351Z,15.21
2023-03-21T11:10:03.349Z,15.12
2023-03-21T11:11:03.317Z,15.13
2023-03-21T11:12:03.317Z,15.27
2023-03-21T11:13:03.268Z,15.24
2023-03-21T11:14:03.257Z,15.13
2023-03-21T11:15:03.248Z,15.30
2023-03-21T11:16:03.209Z,15.09
2023-03-21T11:17:03.253Z,15.08
2023-03-21T11:18:03.190Z,15.13
2023-03-21T11:19:03.173Z,15.17
2023-03-21T11:20:03.155Z,15.12
2023-03-21T11:21:03.148Z,15.01
2023-03-21T11:22:03.113Z,15.08
2023-03-21T11:23:03.093Z,15.09
2023-03-21T11:24:03.098Z,15.05
2023-03-21T11:25:03.053Z,14.99
2023-03-21T11:26:03.048Z,14.86
2023-03-21T11:27:03.017Z,14.84
2023-03-21T11:28:03.004Z,14.84
2023-03-21T11:29:02.982Z,14.86
2023-03-21T11:30:02.962Z,14.86
2023-03-21T11:31:03.005Z,14.83
2023-03-21T11:32:02.934Z,14.90
2023-03-21T11:33:02.901Z,14.93
2023-03-21T11:34:02.881Z,14.86
2023-03-21T11:35:02.869Z,14.83
2023-03-21T11:36:02.898Z,14.87
2023-03-21T11:37:02.885Z,14.83
2023-03-21T11:38:02.808Z,14.81
2023-03-21T11:39:02.797Z,14.75
2023-03-21T11:40:02.771Z,14.71
2023-03-21T11:41:02.762Z,14.62
2023-03-21T11:42:02.732Z,14.38
2023-03-21T11:43:02.739Z,14.43
2023-03-21T11:44:02.693Z,14.37
2023-03-21T11:45:02.680Z,14.28
2023-03-21T11:46:02.707Z,14.38
2023-03-21T11:47:02.663Z,14.38
2023-03-21T11:48:02.654Z,14.29
2023-03-21T11:49:02.604Z,14.21
2023-03-21T11:50:05.358Z,14.21
2023-03-21T11:51:02.575Z,14.27
2023-03-21T11:52:02.543Z,14.28
2023-03-21T11:53:02.528Z,14.13
2023-03-21T11:54:02.553Z,14.07
2023-03-21T11:55:02.487Z,14.13
2023-03-21T11:56:02.458Z,14.17
2023-03-21T11:57:02.437Z,14.16
2023-03-21T11:58:13.374Z,14.17
2023-03-21T11:59:02.476Z,14.29
2023-03-21T12:00:02.381Z,14.39
2023-03-21T12:01:02.365Z,14.24
2023-03-21T12:02:02.340Z,14.14
2023-03-21T12:03:02.413Z,13.99
2023-03-21T12:04:02.307Z,14.16
2023-03-21T12:05:02.294Z,14.14
2023-03-21T12:06:02.272Z,14.21
2023-03-21T12:07:02.235Z,14.16
2023-03-21T12:08:02.225Z,14.10
2023-03-21T12:09:02.196Z,13.96
2023-03-21T12:10:02.176Z,13.87
2023-03-21T12:11:02.155Z,13.91
2023-03-21T12:12:02.127Z,13.87
2023-03-21T12:13:02.115Z,13.81
2023-03-21T12:14:02.114Z,13.77
2023-03-21T12:15:02.077Z,13.67
2023-03-21T12:16:02.097Z,13.69
2023-03-21T12:17:02.057Z,13.58
2023-03-21T12:18:02.010Z,13.56
2023-03-21T12:19:01.999Z,13.71
2023-03-21T12:20:01.971Z,13.65
2023-03-21T12:21:01.954Z,13.54
2023-03-21T12:22:01.937Z,13.52
2023-03-21T12:23:01.985Z,13.49
2023-03-21T12:24:01.908Z,13.54
2023-03-21T12:25:01.877Z,13.52
2023-03-21T12:26:01.850Z,13.51
2023-03-21T12:27:01.837Z,13.52
2023-03-21T12:28:02.689Z,13.43
2023-03-21T12:29:01.783Z,13.36
2023-03-21T12:30:01.763Z,13.32
2023-03-21T12:31:01.798Z,13.24
2023-03-21T12:32:01.730Z,13.17
2023-03-21T12:33:01.701Z,13.17
2023-03-21T12:34:01.675Z,13.15
2023-03-21T12:35:01.663Z,13.29
2023-03-21T12:36:01.690Z,13.25
2023-03-21T12:37:01.640Z,13.29
2023-03-21T12:38:01.603Z,13.37
2023-03-21T12:39:01.578Z,13.27
2023-03-21T12:40:01.549Z,13.22
2023-03-21T12:41:01.534Z,13.14
2023-03-21T12:42:01.605Z,13.18
2023-03-21T12:43:01.488Z,13.18
2023-03-21T12:44:01.465Z,13.25
2023-03-21T12:45:06.036Z,13.14
2023-03-21T12:46:01.417Z,13.27
2023-03-21T12:47:01.510Z,13.29
2023-03-21T12:48:01.403Z,13.24
2023-03-21T12:49:01.355Z,13.25
2023-03-21T12:50:01.345Z,13.18
2023-03-21T12:51:01.334Z,13.06
2023-03-21T12:52:01.286Z,13.14
2023-03-21T12:53:01.276Z,13.09
2023-03-21T12:54:01.244Z,13.09
2023-03-21T12:55:01.235Z,13.20
2023-03-21T12:56:01.202Z,13.14
2023-03-21T12:57:01.189Z,13.22
2023-03-21T12:58:01.256Z,13.20
2023-03-21T12:59:01.148Z,13.27
2023-03-21T13:00:01.114Z,13.46
2023-03-21T13:01:01.180Z,13.43
2023-03-21T13:02:01.082Z,13.33
2023-03-21T13:03:01.068Z,13.36
2023-03-21T13:04:01.063Z,13.37
2023-03-21T13:05:01.569Z,13.52
2023-03-21T13:06:01.000Z,13.62
2023-03-21T13:07:00.975Z,13.76